sensor_id;sensor_type;location;lat;lon;timestamp;P1;durP1;ratioP1;P2;durP2;ratioP2
36373;SDS011;22399;51.346;12.372;2023-04-06T00:00:57;12.52;;;3.42;;
36373;SDS011;22399;51.346;12.372;2023-04-06T00:03:27;11.80;;;3.17;;
36373;SDS011;22399;51.346;12.372;2023-04-06T00:05:57;5.45;;;2.03;;
36373;SDS011;22399;51.346;12.372;2023-04-06T00:08:25;15.48;;;3.30;;
36373;SDS011;22399;51.346;12.372;2023-04-06T00:10:54;6.72;;;2.67;;
36373;SDS011;22399;51.346;12.372;2023-04-06T00:13:23;12.73;;;2.97;;
36373;SDS011;22399;51.346;12.372;2023-04-06T00:15:52;8.30;;;2.63;;
36373;SDS011;22399;51.346;12.372;2023-04-06T00:18:20;5.15;;;2.25;;
36373;SDS011;22399;51.346;12.372;2023-04-06T00:20:51;10.23;;;3.15;;
36373;SDS011;22399;51.346;12.372;2023-04-06T00:23:20;17.98;;;3.88;;
36373;SDS011;22399;51.346;12.372;2023-04-06T00:25:48;7.82;;;3.28;;
36373;SDS011;22399;51.346;12.372;2023-04-06T00:28:17;10.65;;;3.45;;
36373;SDS011;22399;51.346;12.372;2023-04-06T00:30:51;12.32;;;3.45;;
36373;SDS011;22399;51.346;12.372;2023-04-06T00:33:22;7.07;;;3.42;;
36373;SDS011;22399;51.346;12.372;2023-04-06T00:35:52;8.95;;;2.88;;
36373;SDS011;22399;51.346;12.372;2023-04-06T00:38:21;8.80;;;3.17;;
36373;SDS011;22399;51.346;12.372;2023-04-06T00:40:50;12.82;;;3.15;;
36373;SDS011;22399;51.346;12.372;2023-04-06T00:43:18;14.82;;;4.18;;
36373;SDS011;22399;51.346;12.372;2023-04-06T00:45:47;11.68;;;3.80;;
36373;SDS011;22399;51.346;12.372;2023-04-06T00:48:15;10.38;;;3.15;;
36373;SDS011;22399;51.346;12.372;2023-04-06T00:50:44;11.52;;;3.65;;
36373;SDS011;22399;51.346;12.372;2023-04-06T00:53:14;12.43;;;3.88;;
36373;SDS011;22399;51.346;12.372;2023-04-06T00:55:43;8.02;;;2.97;;
36373;SDS011;22399;51.346;12.372;2023-04-06T00:58:11;9.45;;;3.15;;
36373;SDS011;22399;51.346;12.372;2023-04-06T01:00:51;12.38;;;4.43;;
36373;SDS011;22399;51.346;12.372;2023-04-06T01:03:21;13.77;;;3.45;;
36373;SDS011;22399;51.346;12.372;2023-04-06T01:05:51;9.43;;;3.25;;
36373;SDS011;22399;51.346;12.372;2023-04-06T01:08:31;8.95;;;3.40;;
36373;SDS011;22399;51.346;12.372;2023-04-06T01:11:12;9.68;;;3.30;;
36373;SDS011;22399;51.346;12.372;2023-04-06T01:13:41;8.88;;;2.92;;
36373;SDS011;22399;51.346;12.372;2023-04-06T01:16:18;7.53;;;2.72;;
36373;SDS011;22399;51.346;12.372;2023-04-06T01:19:06;5.28;;;2.60;;
36373;SDS011;22399;51.346;12.372;2023-04-06T01:21:39;8.60;;;3.13;;
36373;SDS011;22399;51.346;12.372;2023-04-06T01:24:33;7.47;;;2.85;;
36373;SDS011;22399;51.346;12.372;2023-04-06T01:27:09;9.18;;;3.47;;
36373;SDS011;22399;51.346;12.372;2023-04-06T01:29:57;6.18;;;2.85;;
36373;SDS011;22399;51.346;12.372;2023-04-06T01:32:44;15.55;;;2.50;;
36373;SDS011;22399;51.346;12.372;2023-04-06T01:35:17;6.38;;;2.97;;
36373;SDS011;22399;51.346;12.372;2023-04-06T01:37:57;4.00;;;2.53;;
36373;SDS011;22399;51.346;12.372;2023-04-06T01:40:32;7.05;;;2.47;;
36373;SDS011;22399;51.346;12.372;2023-04-06T01:43:01;10.30;;;3.45;;
36373;SDS011;22399;51.346;12.372;2023-04-06T01:45:35;9.95;;;3.00;;
36373;SDS011;22399;51.346;12.372;2023-04-06T01:48:18;8.10;;;3.03;;
36373;SDS011;22399;51.346;12.372;2023-04-06T01:50:47;11.13;;;2.75;;
36373;SDS011;22399;51.346;12.372;2023-04-06T01:53:22;7.90;;;2.93;;
36373;SDS011;22399;51.346;12.372;2023-04-06T01:55:56;7.43;;;2.95;;
36373;SDS011;22399;51.346;12.372;2023-04-06T01:58:29;5.03;;;2.75;;
36373;SDS011;22399;51.346;12.372;2023-04-06T02:00:58;7.20;;;3.10;;
36373;SDS011;22399;51.346;12.372;2023-04-06T02:03:32;8.43;;;2.53;;
36373;SDS011;22399;51.346;12.372;2023-04-06T02:06:06;9.50;;;3.08;;
36373;SDS011;22399;51.346;12.372;2023-04-06T02:08:38;6.97;;;2.97;;
36373;SDS011;22399;51.346;12.372;2023-04-06T02:11:08;9.07;;;3.60;;
36373;SDS011;22399;51.346;12.372;2023-04-06T02:13:44;5.85;;;2.67;;
36373;SDS011;22399;51.346;12.372;2023-04-06T02:16:13;13.95;;;3.38;;
36373;SDS011;22399;51.346;12.372;2023-04-06T02:18:44;6.63;;;2.50;;
36373;SDS011;22399;51.346;12.372;2023-04-06T02:21:12;7.20;;;2.70;;
36373;SDS011;22399;51.346;12.372;2023-04-06T02:23:44;6.47;;;3.22;;
36373;SDS011;22399;51.346;12.372;2023-04-06T02:26:14;7.00;;;2.92;;
36373;SDS011;22399;51.346;12.372;2023-04-06T02:28:42;19.25;;;3.42;;
36373;SDS011;22399;51.346;12.372;2023-04-06T02:31:11;8.00;;;3.53;;
36373;SDS011;22399;51.346;12.372;2023-04-06T02:33:43;6.60;;;3.58;;
36373;SDS011;22399;51.346;12.372;2023-04-06T02:36:13;13.15;;;4.22;;
36373;SDS011;22399;51.346;12.372;2023-04-06T02:38:43;10.45;;;2.83;;
36373;SDS011;22399;51.346;12.372;2023-04-06T02:41:11;7.25;;;3.28;;
36373;SDS011;22399;51.346;12.372;2023-04-06T02:43:41;7.00;;;2.85;;
36373;SDS011;22399;51.346;12.372;2023-04-06T02:46:27;8.68;;;3.45;;
36373;SDS011;22399;51.346;12.372;2023-04-06T02:48:56;7.15;;;2.83;;
36373;SDS011;22399;51.346;12.372;2023-04-06T02:51:29;8.07;;;2.65;;
36373;SDS011;22399;51.346;12.372;2023-04-06T02:54:09;5.88;;;2.85;;
36373;SDS011;22399;51.346;12.372;2023-04-06T02:56:37;12.30;;;3.75;;
36373;SDS011;22399;51.346;12.372;2023-04-06T02:59:07;17.08;;;3.22;;
36373;SDS011;22399;51.346;12.372;2023-04-06T03:01:37;11.65;;;3.88;;
36373;SDS011;22399;51.346;12.372;2023-04-06T03:04:06;7.93;;;3.10;;
36373;SDS011;22399;51.346;12.372;2023-04-06T03:06:35;9.20;;;3.63;;
36373;SDS011;22399;51.346;12.372;2023-04-06T03:09:13;9.98;;;3.35;;
36373;SDS011;22399;51.346;12.372;2023-04-06T03:11:43;12.32;;;3.63;;
36373;SDS011;22399;51.346;12.372;2023-04-06T03:14:13;5.53;;;2.78;;
36373;SDS011;22399;51.346;12.372;2023-04-06T03:16:43;10.13;;;3.85;;
36373;SDS011;22399;51.346;12.372;2023-04-06T03:19:17;6.00;;;3.08;;
36373;SDS011;22399;51.346;12.372;2023-04-06T03:21:46;14.98;;;3.45;;
36373;SDS011;22399;51.346;12.372;2023-04-06T03:24:16;9.90;;;4.05;;
36373;SDS011;22399;51.346;12.372;2023-04-06T03:26:44;7.00;;;2.90;;
36373;SDS011;22399;51.346;12.372;2023-04-06T03:29:14;5.50;;;2.75;;
36373;SDS011;22399;51.346;12.372;2023-04-06T03:31:43;8.63;;;3.95;;
36373;SDS011;22399;51.346;12.372;2023-04-06T03:34:29;15.73;;;3.90;;
36373;SDS011;22399;51.346;12.372;2023-04-06T03:36:57;9.60;;;3.42;;
36373;SDS011;22399;51.346;12.372;2023-04-06T03:39:39;11.05;;;3.90;;
36373;SDS011;22399;51.346;12.372;2023-04-06T03:42:10;8.77;;;3.90;;
36373;SDS011;22399;51.346;12.372;2023-04-06T03:44:47;11.32;;;4.38;;
36373;SDS011;22399;51.346;12.372;2023-04-06T03:47:16;13.00;;;3.22;;
36373;SDS011;22399;51.346;12.372;2023-04-06T03:49:45;8.68;;;3.30;;
36373;SDS011;22399;51.346;12.372;2023-04-06T03:52:15;8.98;;;3.42;;
36373;SDS011;22399;51.346;12.372;2023-04-06T03:57:35;12.07;;;3.22;;
36373;SDS011;22399;51.346;12.372;2023-04-06T04:00:06;6.90;;;3.10;;
36373;SDS011;22399;51.346;12.372;2023-04-06T04:02:38;7.38;;;3.42;;
36373;SDS011;22399;51.346;12.372;2023-04-06T04:05:07;7.45;;;3.83;;
36373;SDS011;22399;51.346;12.372;2023-04-06T04:07:36;9.02;;;3.58;;
36373;SDS011;22399;51.346;12.372;2023-04-06T04:10:06;8.40;;;3.60;;
36373;SDS011;22399;51.346;12.372;2023-04-06T04:12:36;7.25;;;3.25;;
36373;SDS011;22399;51.346;12.372;2023-04-06T04:15:06;9.85;;;3.55;;
36373;SDS011;22399;51.346;12.372;2023-04-06T04:17:35;13.60;;;3.63;;
36373;SDS011;22399;51.346;12.372;2023-04-06T04:20:04;11.43;;;3.63;;
36373;SDS011;22399;51.346;12.372;2023-04-06T04:22:34;10.73;;;3.67;;
36373;SDS011;22399;51.346;12.372;2023-04-06T04:25:03;8.65;;;3.78;;
36373;SDS011;22399;51.346;12.372;2023-04-06T04:27:37;15.43;;;4.03;;
36373;SDS011;22399;51.346;12.372;2023-04-06T04:30:08;12.05;;;3.42;;
36373;SDS011;22399;51.346;12.372;2023-04-06T04:32:36;8.98;;;4.03;;
36373;SDS011;22399;51.346;12.372;2023-04-06T04:35:08;7.95;;;3.17;;
36373;SDS011;22399;51.346;12.372;2023-04-06T04:37:40;13.00;;;3.83;;
36373;SDS011;22399;51.346;12.372;2023-04-06T04:40:10;5.57;;;3.00;;
36373;SDS011;22399;51.346;12.372;2023-04-06T04:42:53;14.23;;;4.32;;
36373;SDS011;22399;51.346;12.372;2023-04-06T04:45:30;13.85;;;3.55;;
36373;SDS011;22399;51.346;12.372;2023-04-06T04:48:07;10.77;;;4.00;;
36373;SDS011;22399;51.346;12.372;2023-04-06T04:50:48;22.52;;;3.75;;
36373;SDS011;22399;51.346;12.372;2023-04-06T04:53:20;9.35;;;3.58;;
36373;SDS011;22399;51.346;12.372;2023-04-06T04:55:54;5.57;;;2.78;;
36373;SDS011;22399;51.346;12.372;2023-04-06T04:58:26;6.10;;;3.28;;
36373;SDS011;22399;51.346;12.372;2023-04-06T05:00:59;10.50;;;3.63;;
36373;SDS011;22399;51.346;12.372;2023-04-06T05:03:28;8.70;;;2.95;;
36373;SDS011;22399;51.346;12.372;2023-04-06T05:08:35;8.73;;;2.83;;
36373;SDS011;22399;51.346;12.372;2023-04-06T05:11:05;8.40;;;3.53;;
36373;SDS011;22399;51.346;12.372;2023-04-06T05:13:38;12.27;;;4.05;;
36373;SDS011;22399;51.346;12.372;2023-04-06T05:16:21;7.68;;;3.25;;
36373;SDS011;22399;51.346;12.372;2023-04-06T05:18:51;11.00;;;3.85;;
36373;SDS011;22399;51.346;12.372;2023-04-06T05:21:20;8.75;;;3.60;;
36373;SDS011;22399;51.346;12.372;2023-04-06T05:23:56;8.13;;;3.33;;
36373;SDS011;22399;51.346;12.372;2023-04-06T05:26:26;12.27;;;4.20;;
36373;SDS011;22399;51.346;12.372;2023-04-06T05:29:00;17.40;;;3.13;;
36373;SDS011;22399;51.346;12.372;2023-04-06T05:31:35;12.15;;;3.60;;
36373;SDS011;22399;51.346;12.372;2023-04-06T05:34:04;19.73;;;3.90;;
36373;SDS011;22399;51.346;12.372;2023-04-06T05:36:35;9.95;;;3.63;;
36373;SDS011;22399;51.346;12.372;2023-04-06T05:39:12;6.25;;;3.15;;
36373;SDS011;22399;51.346;12.372;2023-04-06T05:41:48;16.30;;;4.43;;
36373;SDS011;22399;51.346;12.372;2023-04-06T05:44:27;5.15;;;3.55;;
36373;SDS011;22399;51.346;12.372;2023-04-06T05:47:08;11.50;;;3.53;;
36373;SDS011;22399;51.346;12.372;2023-04-06T05:49:39;12.88;;;3.72;;
36373;SDS011;22399;51.346;12.372;2023-04-06T05:52:15;6.32;;;3.20;;
36373;SDS011;22399;51.346;12.372;2023-04-06T05:54:45;5.88;;;2.88;;
36373;SDS011;22399;51.346;12.372;2023-04-06T05:57:14;10.55;;;3.50;;
36373;SDS011;22399;51.346;12.372;2023-04-06T05:59:44;8.82;;;3.55;;
36373;SDS011;22399;51.346;12.372;2023-04-06T06:02:15;12.13;;;3.92;;
36373;SDS011;22399;51.346;12.372;2023-04-06T06:04:48;10.48;;;4.40;;
36373;SDS011;22399;51.346;12.372;2023-04-06T06:07:17;6.65;;;3.17;;
36373;SDS011;22399;51.346;12.372;2023-04-06T06:09:55;9.05;;;3.97;;
36373;SDS011;22399;51.346;12.372;2023-04-06T06:12:30;6.80;;;3.17;;
36373;SDS011;22399;51.346;12.372;2023-04-06T06:14:59;8.63;;;3.15;;
36373;SDS011;22399;51.346;12.372;2023-04-06T06:17:33;17.85;;;3.33;;
36373;SDS011;22399;51.346;12.372;2023-04-06T06:20:05;7.07;;;3.08;;
36373;SDS011;22399;51.346;12.372;2023-04-06T06:22:35;7.68;;;3.35;;
36373;SDS011;22399;51.346;12.372;2023-04-06T06:25:05;14.48;;;3.80;;
36373;SDS011;22399;51.346;12.372;2023-04-06T06:27:33;9.43;;;3.47;;
36373;SDS011;22399;51.346;12.372;2023-04-06T06:30:04;8.52;;;2.95;;
36373;SDS011;22399;51.346;12.372;2023-04-06T06:32:39;7.60;;;3.30;;
36373;SDS011;22399;51.346;12.372;2023-04-06T06:35:08;12.40;;;4.28;;
36373;SDS011;22399;51.346;12.372;2023-04-06T06:37:37;4.70;;;3.30;;
36373;SDS011;22399;51.346;12.372;2023-04-06T06:40:10;10.73;;;4.20;;
36373;SDS011;22399;51.346;12.372;2023-04-06T06:42:40;9.70;;;3.63;;
36373;SDS011;22399;51.346;12.372;2023-04-06T06:45:39;5.65;;;2.97;;
36373;SDS011;22399;51.346;12.372;2023-04-06T06:48:08;13.88;;;3.75;;
36373;SDS011;22399;51.346;12.372;2023-04-06T06:50:38;16.85;;;3.67;;
36373;SDS011;22399;51.346;12.372;2023-04-06T06:53:06;7.72;;;3.35;;
36373;SDS011;22399;51.346;12.372;2023-04-06T06:55:35;6.85;;;2.92;;
36373;SDS011;22399;51.346;12.372;2023-04-06T06:58:04;10.73;;;3.38;;
36373;SDS011;22399;51.346;12.372;2023-04-06T07:00:33;10.05;;;3.67;;
36373;SDS011;22399;51.346;12.372;2023-04-06T07:03:03;5.25;;;2.63;;
36373;SDS011;22399;51.346;12.372;2023-04-06T07:05:34;7.13;;;3.45;;
36373;SDS011;22399;51.346;12.372;2023-04-06T07:08:05;8.15;;;2.65;;
36373;SDS011;22399;51.346;12.372;2023-04-06T07:10:33;8.00;;;3.53;;
36373;SDS011;22399;51.346;12.372;2023-04-06T07:13:02;7.85;;;3.33;;
36373;SDS011;22399;51.346;12.372;2023-04-06T07:15:31;8.32;;;3.60;;
36373;SDS011;22399;51.346;12.372;2023-04-06T07:18:01;4.50;;;2.92;;
36373;SDS011;22399;51.346;12.372;2023-04-06T07:20:29;5.22;;;2.35;;
36373;SDS011;22399;51.346;12.372;2023-04-06T07:22:59;6.75;;;2.58;;
36373;SDS011;22399;51.346;12.372;2023-04-06T07:25:29;15.27;;;3.30;;
36373;SDS011;22399;51.346;12.372;2023-04-06T07:27:57;5.30;;;2.92;;
36373;SDS011;22399;51.346;12.372;2023-04-06T07:30:26;4.90;;;2.72;;
36373;SDS011;22399;51.346;12.372;2023-04-06T07:32:58;7.05;;;2.65;;
36373;SDS011;22399;51.346;12.372;2023-04-06T07:35:28;11.38;;;2.80;;
36373;SDS011;22399;51.346;12.372;2023-04-06T07:37:57;12.65;;;2.90;;
36373;SDS011;22399;51.346;12.372;2023-04-06T07:40:28;4.82;;;2.67;;
36373;SDS011;22399;51.346;12.372;2023-04-06T07:42:58;5.25;;;2.60;;
36373;SDS011;22399;51.346;12.372;2023-04-06T07:45:29;9.38;;;2.45;;
36373;SDS011;22399;51.346;12.372;2023-04-06T07:47:59;14.32;;;2.80;;
36373;SDS011;22399;51.346;12.372;2023-04-06T07:50:29;5.85;;;2.35;;
36373;SDS011;22399;51.346;12.372;2023-04-06T07:52:58;6.03;;;2.33;;
36373;SDS011;22399;51.346;12.372;2023-04-06T07:55:29;6.55;;;2.55;;
36373;SDS011;22399;51.346;12.372;2023-04-06T07:57:57;5.63;;;2.58;;
36373;SDS011;22399;51.346;12.372;2023-04-06T08:00:26;9.23;;;3.22;;
36373;SDS011;22399;51.346;12.372;2023-04-06T08:02:55;6.55;;;2.63;;
36373;SDS011;22399;51.346;12.372;2023-04-06T08:05:24;8.40;;;2.42;;
36373;SDS011;22399;51.346;12.372;2023-04-06T08:07:53;8.50;;;2.35;;
36373;SDS011;22399;51.346;12.372;2023-04-06T08:10:21;6.57;;;2.40;;
36373;SDS011;22399;51.346;12.372;2023-04-06T08:12:51;5.22;;;2.72;;
36373;SDS011;22399;51.346;12.372;2023-04-06T08:15:20;9.10;;;2.60;;
36373;SDS011;22399;51.346;12.372;2023-04-06T08:17:48;15.48;;;2.53;;
36373;SDS011;22399;51.346;12.372;2023-04-06T08:20:17;7.10;;;2.67;;
36373;SDS011;22399;51.346;12.372;2023-04-06T08:22:46;7.18;;;2.70;;
36373;SDS011;22399;51.346;12.372;2023-04-06T08:25:17;11.80;;;3.00;;
36373;SDS011;22399;51.346;12.372;2023-04-06T08:27:46;5.28;;;2.55;;
36373;SDS011;22399;51.346;12.372;2023-04-06T08:30:15;7.60;;;3.13;;
36373;SDS011;22399;51.346;12.372;2023-04-06T08:32:45;9.52;;;2.45;;
36373;SDS011;22399;51.346;12.372;2023-04-06T08:35:14;5.03;;;2.53;;
36373;SDS011;22399;51.346;12.372;2023-04-06T08:37:43;10.07;;;2.75;;
36373;SDS011;22399;51.346;12.372;2023-04-06T08:40:11;5.90;;;2.28;;
36373;SDS011;22399;51.346;12.372;2023-04-06T08:42:40;11.50;;;2.30;;
36373;SDS011;22399;51.346;12.372;2023-04-06T08:45:12;5.90;;;2.97;;
36373;SDS011;22399;51.346;12.372;2023-04-06T08:47:44;8.48;;;3.00;;
36373;SDS011;22399;51.346;12.372;2023-04-06T08:50:14;11.15;;;2.63;;
36373;SDS011;22399;51.346;12.372;2023-04-06T08:52:44;7.60;;;2.72;;
36373;SDS011;22399;51.346;12.372;2023-04-06T08:55:15;14.07;;;3.65;;
36373;SDS011;22399;51.346;12.372;2023-04-06T08:57:44;8.15;;;3.28;;
36373;SDS011;22399;51.346;12.372;2023-04-06T09:00:16;7.07;;;2.60;;
36373;SDS011;22399;51.346;12.372;2023-04-06T09:02:46;7.47;;;3.20;;
36373;SDS011;22399;51.346;12.372;2023-04-06T09:05:16;9.68;;;3.17;;
36373;SDS011;22399;51.346;12.372;2023-04-06T09:07:46;12.48;;;3.17;;
36373;SDS011;22399;51.346;12.372;2023-04-06T09:10:14;11.10;;;3.22;;
36373;SDS011;22399;51.346;12.372;2023-04-06T09:12:45;6.68;;;2.95;;
36373;SDS011;22399;51.346;12.372;2023-04-06T09:15:20;5.82;;;3.13;;
36373;SDS011;22399;51.346;12.372;2023-04-06T09:17:50;8.10;;;2.70;;
36373;SDS011;22399;51.346;12.372;2023-04-06T09:20:22;6.78;;;2.45;;
36373;SDS011;22399;51.346;12.372;2023-04-06T09:22:53;9.50;;;2.72;;
36373;SDS011;22399;51.346;12.372;2023-04-06T09:25:22;8.13;;;2.88;;
36373;SDS011;22399;51.346;12.372;2023-04-06T09:27:59;7.38;;;2.90;;
36373;SDS011;22399;51.346;12.372;2023-04-06T09:30:30;8.07;;;2.83;;
36373;SDS011;22399;51.346;12.372;2023-04-06T09:32:59;8.95;;;3.45;;
36373;SDS011;22399;51.346;12.372;2023-04-06T09:35:27;10.45;;;2.63;;
36373;SDS011;22399;51.346;12.372;2023-04-06T09:37:58;8.23;;;2.88;;
36373;SDS011;22399;51.346;12.372;2023-04-06T09:40:26;12.82;;;3.13;;
36373;SDS011;22399;51.346;12.372;2023-04-06T09:42:55;8.98;;;2.33;;
36373;SDS011;22399;51.346;12.372;2023-04-06T09:45:26;8.27;;;2.63;;
36373;SDS011;22399;51.346;12.372;2023-04-06T09:47:59;11.10;;;3.28;;
36373;SDS011;22399;51.346;12.372;2023-04-06T09:50:28;9.25;;;2.92;;
36373;SDS011;22399;51.346;12.372;2023-04-06T09:52:59;7.32;;;2.92;;
36373;SDS011;22399;51.346;12.372;2023-04-06T09:55:30;6.55;;;2.28;;
36373;SDS011;22399;51.346;12.372;2023-04-06T09:58:04;6.65;;;2.35;;
36373;SDS011;22399;51.346;12.372;2023-04-06T10:00:46;6.13;;;2.67;;
36373;SDS011;22399;51.346;12.372;2023-04-06T10:03:20;13.02;;;2.80;;
36373;SDS011;22399;51.346;12.372;2023-04-06T10:06:05;8.43;;;2.42;;
36373;SDS011;22399;51.346;12.372;2023-04-06T10:08:39;6.82;;;2.67;;
36373;SDS011;22399;51.346;12.372;2023-04-06T10:11:10;5.55;;;2.47;;
36373;SDS011;22399;51.346;12.372;2023-04-06T10:13:40;5.13;;;2.22;;
36373;SDS011;22399;51.346;12.372;2023-04-06T10:16:09;6.60;;;2.85;;
36373;SDS011;22399;51.346;12.372;2023-04-06T10:18:40;7.72;;;2.35;;
36373;SDS011;22399;51.346;12.372;2023-04-06T10:21:14;4.85;;;2.00;;
36373;SDS011;22399;51.346;12.372;2023-04-06T10:23:48;12.77;;;2.47;;
36373;SDS011;22399;51.346;12.372;2023-04-06T10:26:20;7.90;;;2.45;;
36373;SDS011;22399;51.346;12.372;2023-04-06T10:28:49;6.43;;;2.47;;
36373;SDS011;22399;51.346;12.372;2023-04-06T10:31:25;3.88;;;2.10;;
36373;SDS011;22399;51.346;12.372;2023-04-06T10:33:54;4.25;;;2.08;;
36373;SDS011;22399;51.346;12.372;2023-04-06T10:36:24;4.43;;;2.05;;
36373;SDS011;22399;51.346;12.372;2023-04-06T10:38:55;4.43;;;2.35;;
36373;SDS011;22399;51.346;12.372;2023-04-06T10:41:31;8.05;;;2.95;;
36373;SDS011;22399;51.346;12.372;2023-04-06T10:44:00;3.92;;;2.05;;
36373;SDS011;22399;51.346;12.372;2023-04-06T10:46:32;3.38;;;2.63;;
36373;SDS011;22399;51.346;12.372;2023-04-06T10:49:09;10.82;;;2.63;;
36373;SDS011;22399;51.346;12.372;2023-04-06T10:51:39;8.88;;;2.03;;
36373;SDS011;22399;51.346;12.372;2023-04-06T10:54:08;7.35;;;2.60;;
36373;SDS011;22399;51.346;12.372;2023-04-06T10:56:39;3.30;;;2.00;;
36373;SDS011;22399;51.346;12.372;2023-04-06T10:59:07;4.10;;;2.50;;
36373;SDS011;22399;51.346;12.372;2023-04-06T11:01:37;7.90;;;2.70;;
36373;SDS011;22399;51.346;12.372;2023-04-06T11:04:06;6.65;;;2.97;;
36373;SDS011;22399;51.346;12.372;2023-04-06T11:06:37;4.25;;;2.40;;
36373;SDS011;22399;51.346;12.372;2023-04-06T11:09:06;4.95;;;2.13;;
36373;SDS011;22399;51.346;12.372;2023-04-06T11:11:38;7.28;;;2.78;;
36373;SDS011;22399;51.346;12.372;2023-04-06T11:14:09;10.07;;;3.13;;
36373;SDS011;22399;51.346;12.372;2023-04-06T11:16:39;6.82;;;2.25;;
36373;SDS011;22399;51.346;12.372;2023-04-06T11:19:08;6.82;;;2.78;;
36373;SDS011;22399;51.346;12.372;2023-04-06T11:21:39;4.55;;;2.25;;
36373;SDS011;22399;51.346;12.372;2023-04-06T11:24:10;7.68;;;2.88;;
36373;SDS011;22399;51.346;12.372;2023-04-06T11:26:41;6.63;;;2.33;;
36373;SDS011;22399;51.346;12.372;2023-04-06T11:29:12;7.03;;;2.58;;
36373;SDS011;22399;51.346;12.372;2023-04-06T11:31:44;4.63;;;2.58;;
36373;SDS011;22399;51.346;12.372;2023-04-06T11:34:15;3.05;;;2.25;;
36373;SDS011;22399;51.346;12.372;2023-04-06T11:36:45;4.07;;;2.42;;
36373;SDS011;22399;51.346;12.372;2023-04-06T11:39:18;4.93;;;2.70;;
36373;SDS011;22399;51.346;12.372;2023-04-06T11:41:47;9.80;;;2.60;;
36373;SDS011;22399;51.346;12.372;2023-04-06T11:44:26;4.82;;;2.45;;
36373;SDS011;22399;51.346;12.372;2023-04-06T11:46:58;4.40;;;2.08;;
36373;SDS011;22399;51.346;12.372;2023-04-06T11:49:28;6.20;;;2.22;;
36373;SDS011;22399;51.346;12.372;2023-04-06T11:51:57;6.28;;;2.47;;
36373;SDS011;22399;51.346;12.372;2023-04-06T11:54:30;4.90;;;1.83;;
36373;SDS011;22399;51.346;12.372;2023-04-06T11:56:59;8.60;;;2.58;;
36373;SDS011;22399;51.346;12.372;2023-04-06T11:59:29;4.72;;;2.55;;
36373;SDS011;22399;51.346;12.372;2023-04-06T12:01:59;5.43;;;2.90;;
36373;SDS011;22399;51.346;12.372;2023-04-06T12:04:28;4.53;;;2.13;;
36373;SDS011;22399;51.346;12.372;2023-04-06T12:06:57;11.32;;;2.15;;
36373;SDS011;22399;51.346;12.372;2023-04-06T12:09:26;5.68;;;2.53;;
36373;SDS011;22399;51.346;12.372;2023-04-06T12:11:54;11.90;;;2.50;;
36373;SDS011;22399;51.346;12.372;2023-04-06T12:14:23;5.85;;;2.13;;
36373;SDS011;22399;51.346;12.372;2023-04-06T12:16:51;5.03;;;1.80;;
36373;SDS011;22399;51.346;12.372;2023-04-06T12:19:21;5.80;;;2.25;;
36373;SDS011;22399;51.346;12.372;2023-04-06T12:21:52;3.35;;;1.52;;
36373;SDS011;22399;51.346;12.372;2023-04-06T12:24:21;7.75;;;2.38;;
36373;SDS011;22399;51.346;12.372;2023-04-06T12:26:50;6.15;;;2.03;;
36373;SDS011;22399;51.346;12.372;2023-04-06T12:29:28;11.52;;;2.50;;
36373;SDS011;22399;51.346;12.372;2023-04-06T12:31:56;3.65;;;1.98;;
36373;SDS011;22399;51.346;12.372;2023-04-06T12:34:26;5.72;;;2.45;;
36373;SDS011;22399;51.346;12.372;2023-04-06T12:36:55;4.90;;;2.30;;
36373;SDS011;22399;51.346;12.372;2023-04-06T12:39:23;9.50;;;2.20;;
36373;SDS011;22399;51.346;12.372;2023-04-06T12:41:53;4.00;;;1.70;;
36373;SDS011;22399;51.346;12.372;2023-04-06T12:44:21;3.95;;;2.03;;
36373;SDS011;22399;51.346;12.372;2023-04-06T12:46:52;5.57;;;1.92;;
36373;SDS011;22399;51.346;12.372;2023-04-06T12:49:22;6.60;;;2.28;;
36373;SDS011;22399;51.346;12.372;2023-04-06T12:51:52;7.30;;;2.45;;
36373;SDS011;22399;51.346;12.372;2023-04-06T12:54:21;7.18;;;2.10;;
36373;SDS011;22399;51.346;12.372;2023-04-06T12:56:50;3.63;;;2.03;;
36373;SDS011;22399;51.346;12.372;2023-04-06T12:59:18;3.90;;;1.95;;
36373;SDS011;22399;51.346;12.372;2023-04-06T13:01:47;4.30;;;2.40;;
36373;SDS011;22399;51.346;12.372;2023-04-06T13:04:16;9.68;;;2.60;;
36373;SDS011;22399;51.346;12.372;2023-04-06T13:06:45;4.03;;;2.13;;
36373;SDS011;22399;51.346;12.372;2023-04-06T13:09:15;6.18;;;2.53;;
36373;SDS011;22399;51.346;12.372;2023-04-06T13:11:43;10.82;;;2.72;;
36373;SDS011;22399;51.346;12.372;2023-04-06T13:14:12;4.10;;;2.33;;
36373;SDS011;22399;51.346;12.372;2023-04-06T13:16:41;4.70;;;2.10;;
36373;SDS011;22399;51.346;12.372;2023-04-06T13:19:10;6.15;;;2.20;;
36373;SDS011;22399;51.346;12.372;2023-04-06T13:21:39;4.07;;;2.35;;
36373;SDS011;22399;51.346;12.372;2023-04-06T13:24:07;3.38;;;2.08;;
36373;SDS011;22399;51.346;12.372;2023-04-06T13:26:37;6.28;;;2.40;;
36373;SDS011;22399;51.346;12.372;2023-04-06T13:29:06;6.05;;;2.38;;
36373;SDS011;22399;51.346;12.372;2023-04-06T13:31:35;4.07;;;2.45;;
36373;SDS011;22399;51.346;12.372;2023-04-06T13:34:03;4.35;;;2.13;;
36373;SDS011;22399;51.346;12.372;2023-04-06T13:36:32;4.70;;;2.10;;
36373;SDS011;22399;51.346;12.372;2023-04-06T13:39:01;7.70;;;2.83;;
36373;SDS011;22399;51.346;12.372;2023-04-06T13:41:30;5.68;;;2.00;;
36373;SDS011;22399;51.346;12.372;2023-04-06T13:44:00;9.65;;;2.28;;
36373;SDS011;22399;51.346;12.372;2023-04-06T13:46:28;3.75;;;2.13;;
36373;SDS011;22399;51.346;12.372;2023-04-06T13:48:57;5.55;;;2.30;;
36373;SDS011;22399;51.346;12.372;2023-04-06T13:51:26;8.27;;;2.88;;
36373;SDS011;22399;51.346;12.372;2023-04-06T13:53:54;6.97;;;2.45;;
36373;SDS011;22399;51.346;12.372;2023-04-06T13:56:23;6.50;;;3.50;;
36373;SDS011;22399;51.346;12.372;2023-04-06T13:58:53;5.85;;;2.72;;
36373;SDS011;22399;51.346;12.372;2023-04-06T14:01:24;5.25;;;2.83;;
36373;SDS011;22399;51.346;12.372;2023-04-06T14:03:53;4.18;;;2.03;;
36373;SDS011;22399;51.346;12.372;2023-04-06T14:06:22;5.55;;;2.20;;
36373;SDS011;22399;51.346;12.372;2023-04-06T14:08:57;6.50;;;2.22;;
36373;SDS011;22399;51.346;12.372;2023-04-06T14:11:26;3.35;;;2.05;;
36373;SDS011;22399;51.346;12.372;2023-04-06T14:13:54;13.13;;;2.60;;
36373;SDS011;22399;51.346;12.372;2023-04-06T14:16:25;7.45;;;2.35;;
36373;SDS011;22399;51.346;12.372;2023-04-06T14:18:53;4.20;;;2.55;;
36373;SDS011;22399;51.346;12.372;2023-04-06T14:21:24;4.18;;;2.33;;
36373;SDS011;22399;51.346;12.372;2023-04-06T14:23:53;9.18;;;2.50;;
36373;SDS011;22399;51.346;12.372;2023-04-06T14:26:25;8.25;;;2.45;;
36373;SDS011;22399;51.346;12.372;2023-04-06T14:28:54;5.47;;;2.85;;
36373;SDS011;22399;51.346;12.372;2023-04-06T14:31:22;5.78;;;2.15;;
36373;SDS011;22399;51.346;12.372;2023-04-06T14:33:52;5.88;;;2.42;;
36373;SDS011;22399;51.346;12.372;2023-04-06T14:36:20;4.07;;;2.25;;
36373;SDS011;22399;51.346;12.372;2023-04-06T14:38:49;7.15;;;2.65;;
36373;SDS011;22399;51.346;12.372;2023-04-06T14:41:19;7.88;;;2.53;;
36373;SDS011;22399;51.346;12.372;2023-04-06T14:43:49;3.90;;;2.47;;
36373;SDS011;22399;51.346;12.372;2023-04-06T14:46:19;3.53;;;2.00;;
36373;SDS011;22399;51.346;12.372;2023-04-06T14:48:48;5.32;;;2.35;;
36373;SDS011;22399;51.346;12.372;2023-04-06T14:51:18;4.38;;;2.47;;
36373;SDS011;22399;51.346;12.372;2023-04-06T14:53:47;4.75;;;2.22;;
36373;SDS011;22399;51.346;12.372;2023-04-06T14:56:18;5.22;;;1.63;;
36373;SDS011;22399;51.346;12.372;2023-04-06T14:58:48;6.15;;;2.40;;